Fostoria, Ohio
Current Conditions -  °F | °C
As of 10:53 AM on Sunday 23 Nov 2014 (Local Time) from KFDY Reporting Station
Broken Clouds Broken Clouds  
Wind Chill: 52°   Ceiling: 8500
Heat Index: 52°   Visibility: 10mi
Dew Point: 44°   Wind: 10mph
Humidity: 74%   Direction: 150°SSE
Pressure: 29.91"   Gusts: NA
Location:  41.16°N, 83.41°W
Report Text: KFDY 231553Z AUTO 15009KT 10SM BKN085 11/07 A2991 RMK AO2 SLP126 T01110067
Loading
Personal Weather Stations






























Interactive Weather Map New forecast layout! Learn more

10-Day Weather Forecast

Advertisements
Track Severe Weather on mobile